createdAt,value
2019-05-22T00:02:34.987Z,73.42
2019-05-22T00:05:14.427Z,73.44
2019-05-22T00:07:47.898Z,73.83
2019-05-22T00:10:23.658Z,73.59
2019-05-22T00:12:56.935Z,73.27
2019-05-22T00:15:30.102Z,72.85
2019-05-22T00:18:03.875Z,72.92
2019-05-22T00:20:36.424Z,73.05
2019-05-22T00:23:10.392Z,73.07
2019-05-22T00:25:43.618Z,73.05
2019-05-22T00:28:16.886Z,73.17
2019-05-22T00:30:49.828Z,72.94
2019-05-22T00:33:22.285Z,73.04
2019-05-22T00:35:56.090Z,72.99
2019-05-22T00:38:28.791Z,72.92
2019-05-22T00:41:07.786Z,72.82
2019-05-22T00:43:42.131Z,72.87
2019-05-22T00:46:19.481Z,72.62
2019-05-22T00:48:52.193Z,72.33
2019-05-22T00:51:40.923Z,72.41
2019-05-22T00:54:21.302Z,72.30
2019-05-22T00:57:03.212Z,72.55
2019-05-22T00:59:37.440Z,72.35
2019-05-22T01:02:10.280Z,72.09
2019-05-22T01:04:42.298Z,72.50
2019-05-22T01:07:21.367Z,72.60
2019-05-22T01:09:56.645Z,72.26
2019-05-22T01:12:29.588Z,71.97
2019-05-22T01:15:06.336Z,71.91
2019-05-22T01:17:38.157Z,72.03
2019-05-22T01:20:12.943Z,72.06
2019-05-22T01:22:47.433Z,71.92
2019-05-22T01:25:22.009Z,71.73
2019-05-22T01:27:53.464Z,72.06
2019-05-22T01:30:31.458Z,71.85
2019-05-22T01:33:07.307Z,71.63
2019-05-22T01:35:40.266Z,71.80
2019-05-22T01:38:13.930Z,71.59
2019-05-22T01:40:53.551Z,71.76
2019-05-22T01:43:26.130Z,71.88
2019-05-22T01:46:00.854Z,71.97
2019-05-22T01:48:36.838Z,71.89
2019-05-22T01:51:10.669Z,71.86
2019-05-22T01:53:43.888Z,71.96
2019-05-22T01:56:16.989Z,71.83
2019-05-22T01:58:49.862Z,72.16
2019-05-22T02:01:24.339Z,71.98
2019-05-22T02:03:56.741Z,72.01
2019-05-22T02:06:28.334Z,71.61
2019-05-22T02:09:16.580Z,71.41
2019-05-22T02:11:52.183Z,71.40
2019-05-22T02:14:25.465Z,71.32
2019-05-22T02:16:58.181Z,71.15
2019-05-22T02:19:29.558Z,70.78
2019-05-22T02:22:02.146Z,70.81
2019-05-22T02:24:34.445Z,70.88
2019-05-22T02:27:06.100Z,71.06
2019-05-22T02:29:38.015Z,70.96
2019-05-22T02:32:11.486Z,70.98
2019-05-22T02:34:44.244Z,71.09
2019-05-22T02:37:17.202Z,71.23
2019-05-22T02:39:50.314Z,71.05
2019-05-22T02:42:26.827Z,71.06
2019-05-22T02:44:58.701Z,70.72
2019-05-22T02:47:30.535Z,70.34
2019-05-22T02:50:01.731Z,70.33
2019-05-22T02:52:35.454Z,70.22
2019-05-22T02:55:06.789Z,70.28
2019-05-22T02:57:37.817Z,70.34
2019-05-22T03:00:09.269Z,70.40
2019-05-22T03:02:50.143Z,70.46
2019-05-22T03:05:23.071Z,70.52
2019-05-22T03:07:54.718Z,70.70
2019-05-22T03:10:26.601Z,71.07
2019-05-22T03:12:58.491Z,70.97
2019-05-22T03:15:29.586Z,71.19
2019-05-22T03:18:05.207Z,71.06
2019-05-22T03:20:37.730Z,71.45
2019-05-22T03:23:40.470Z,71.86
2019-05-22T03:26:13.303Z,71.90
2019-05-22T03:28:45.954Z,71.78
2019-05-22T03:31:18.746Z,71.73
2019-05-22T03:33:49.772Z,71.54
2019-05-22T03:36:22.369Z,71.38
2019-05-22T03:38:53.732Z,71.31
2019-05-22T03:41:24.975Z,71.57
2019-05-22T03:43:58.552Z,71.81
2019-05-22T03:46:40.088Z,71.82
2019-05-22T03:49:29.285Z,72.28
2019-05-22T03:51:49.241Z,72.33
2019-05-22T03:54:21.837Z,72.43
2019-05-22T03:56:54.399Z,72.28
2019-05-22T03:59:25.848Z,72.66
2019-05-22T04:01:57.287Z,72.88
2019-05-22T04:04:36.790Z,72.92
2019-05-22T04:07:10.980Z,73.12
2019-05-22T04:09:45.075Z,73.23
2019-05-22T04:12:16.922Z,73.20
2019-05-22T04:14:48.403Z,73.38
2019-05-22T04:17:21.464Z,73.26
2019-05-22T04:19:52.755Z,73.12
2019-05-22T04:22:24.489Z,72.97
2019-05-22T04:24:55.977Z,73.02
2019-05-22T04:27:27.819Z,73.34
2019-05-22T04:29:59.116Z,73.30
2019-05-22T04:32:33.121Z,73.29
2019-05-22T04:35:07.082Z,73.16
2019-05-22T04:37:38.497Z,73.31
2019-05-22T04:40:48.792Z,73.46
2019-05-22T04:43:23.938Z,73.63
2019-05-22T04:45:56.896Z,73.60
2019-05-22T04:48:29.341Z,73.84
2019-05-22T04:51:19.896Z,74.05
2019-05-22T04:53:51.230Z,74.33
2019-05-22T04:56:23.715Z,74.34
2019-05-22T04:58:55.294Z,73.94
2019-05-22T05:01:27.533Z,73.71
2019-05-22T05:03:58.913Z,73.58
2019-05-22T05:06:33.114Z,73.38
2019-05-22T05:09:10.113Z,73.02
2019-05-22T05:11:41.348Z,72.71
2019-05-22T05:14:12.434Z,72.55
2019-05-22T05:16:43.620Z,72.76
2019-05-22T05:19:14.715Z,73.01
2019-05-22T05:21:46.795Z,72.84
2019-05-22T05:24:17.935Z,72.43
2019-05-22T05:26:50.441Z,72.22
2019-05-22T05:29:31.079Z,71.98
2019-05-22T05:32:03.290Z,71.98
2019-05-22T05:34:59.798Z,71.81
2019-05-22T05:37:31.562Z,71.55
2019-05-22T05:40:28.975Z,71.97
2019-05-22T05:43:00.962Z,72.26
2019-05-22T05:45:33.705Z,71.77
2019-05-22T05:48:07.282Z,71.61
2019-05-22T05:50:40.684Z,71.33
2019-05-22T05:53:16.749Z,70.83
2019-05-22T05:56:13.517Z,70.96
2019-05-22T05:58:45.637Z,71.03
2019-05-22T06:01:28.131Z,70.95
2019-05-22T06:03:59.732Z,70.74
2019-05-22T06:07:15.760Z,70.72
2019-05-22T06:09:55.883Z,71.11
2019-05-22T06:12:27.206Z,71.42
2019-05-22T06:14:58.717Z,71.55
2019-05-22T06:18:08.615Z,71.62
2019-05-22T06:20:41.247Z,71.49
2019-05-22T06:23:52.272Z,71.36
2019-05-22T06:27:11.216Z,71.15
2019-05-22T06:30:13.630Z,70.77
2019-05-22T06:33:21.521Z,71.41
2019-05-22T06:35:52.816Z,71.41
2019-05-22T06:38:47.113Z,72.12
2019-05-22T06:41:18.907Z,72.36
2019-05-22T06:44:28.773Z,72.30
2019-05-22T06:46:59.961Z,71.11
2019-05-22T06:49:44.591Z,71.11
2019-05-22T06:52:15.943Z,71.21
2019-05-22T06:54:48.631Z,71.19
2019-05-22T06:57:26.701Z,70.48
2019-05-22T07:00:14.080Z,70.45
2019-05-22T07:02:35.943Z,70.57
2019-05-22T07:05:07.497Z,70.78
2019-05-22T07:07:39.335Z,70.90
2019-05-22T07:10:15.151Z,71.46
2019-05-22T07:12:50.506Z,71.75
2019-05-22T07:15:28.844Z,72.14
2019-05-22T07:18:01.331Z,72.06
2019-05-22T07:20:35.603Z,72.41
2019-05-22T07:23:07.917Z,72.72
2019-05-22T07:25:42.039Z,72.67
2019-05-22T07:28:14.129Z,72.87
2019-05-22T07:30:45.921Z,72.35
2019-05-22T07:33:17.984Z,71.88
2019-05-22T07:36:08.677Z,71.42
2019-05-22T07:38:22.715Z,71.04
2019-05-22T07:40:53.973Z,69.93
2019-05-22T07:43:25.283Z,69.36
2019-05-22T07:45:57.763Z,69.41
2019-05-22T07:48:29.592Z,69.40
2019-05-22T07:51:01.479Z,69.01
2019-05-22T07:53:32.545Z,69.06
2019-05-22T07:56:08.649Z,69.32
2019-05-22T07:58:40.786Z,69.04
2019-05-22T08:01:12.134Z,69.46
2019-05-22T08:03:44.903Z,69.59
2019-05-22T08:06:16.639Z,70.36
2019-05-22T08:08:49.215Z,71.15
2019-05-22T08:11:20.917Z,71.57
2019-05-22T08:13:52.274Z,71.86
2019-05-22T08:16:24.120Z,72.29
2019-05-22T08:18:55.464Z,72.67
2019-05-22T08:21:27.053Z,73.09
2019-05-22T08:23:58.601Z,73.33
2019-05-22T08:26:30.960Z,73.16
2019-05-22T08:29:03.262Z,72.71
2019-05-22T08:31:34.804Z,72.42
2019-05-22T08:34:06.445Z,72.45
2019-05-22T08:36:38.694Z,72.21
2019-05-22T08:39:11.424Z,72.24
2019-05-22T08:41:43.575Z,72.33
2019-05-22T08:44:17.537Z,72.64
2019-05-22T08:46:48.620Z,73.14
2019-05-22T08:49:21.600Z,73.99
2019-05-22T08:51:52.922Z,73.99
2019-05-22T08:54:24.275Z,73.40
2019-05-22T08:56:56.324Z,73.35
2019-05-22T08:59:27.346Z,73.12
2019-05-22T09:01:58.691Z,73.08
2019-05-22T09:04:29.963Z,72.75
2019-05-22T09:07:01.344Z,72.18
2019-05-22T09:09:32.332Z,71.75
2019-05-22T09:12:04.986Z,71.24
2019-05-22T09:14:36.042Z,70.95
2019-05-22T09:17:07.586Z,70.68
2019-05-22T09:19:38.618Z,70.16
2019-05-22T09:22:09.774Z,70.01
2019-05-22T09:24:43.241Z,69.74
2019-05-22T09:27:15.003Z,69.49
2019-05-22T09:29:46.379Z,69.19
2019-05-22T09:32:18.732Z,69.75
2019-05-22T09:34:50.586Z,70.23
2019-05-22T09:37:22.406Z,70.83
2019-05-22T09:39:53.675Z,70.78
2019-05-22T09:42:26.602Z,70.94
2019-05-22T09:44:57.795Z,70.35
2019-05-22T09:47:29.196Z,70.09
2019-05-22T09:50:00.904Z,69.92
2019-05-22T09:52:35.918Z,69.88
2019-05-22T09:55:08.465Z,69.78
2019-05-22T09:57:39.719Z,70.20
2019-05-22T10:00:13.213Z,70.27
2019-05-22T10:02:44.389Z,70.71
2019-05-22T10:05:17.455Z,71.47
2019-05-22T10:08:00.531Z,71.97
2019-05-22T10:10:22.804Z,72.12
2019-05-22T10:12:54.585Z,71.72
2019-05-22T10:15:26.426Z,72.06
2019-05-22T10:17:57.748Z,72.21
2019-05-22T10:20:29.561Z,72.11
2019-05-22T10:23:14.703Z,72.00
2019-05-22T10:25:34.194Z,71.60
2019-05-22T10:28:07.177Z,71.24
2019-05-22T10:30:38.663Z,70.89
2019-05-22T10:33:09.917Z,71.48
2019-05-22T10:35:41.061Z,71.87
2019-05-22T10:38:12.330Z,72.13
2019-05-22T10:40:43.579Z,72.17
2019-05-22T10:43:14.571Z,72.45
2019-05-22T10:45:45.611Z,72.41
2019-05-22T10:48:17.026Z,72.32
2019-05-22T10:50:48.198Z,71.72
2019-05-22T10:53:32.820Z,71.14
2019-05-22T10:55:52.957Z,70.77
2019-05-22T10:58:23.972Z,70.33
2019-05-22T11:00:55.129Z,69.14
2019-05-22T11:03:26.603Z,68.23
2019-05-22T11:06:07.300Z,67.78
2019-05-22T11:08:34.337Z,67.43
2019-05-22T11:11:04.687Z,67.97
2019-05-22T11:13:36.892Z,67.97
2019-05-22T11:16:08.919Z,68.73
2019-05-22T11:18:40.325Z,68.51
2019-05-22T11:21:12.454Z,69.10
2019-05-22T11:23:51.951Z,68.89
2019-05-22T11:26:16.901Z,68.49
2019-05-22T11:28:48.614Z,68.31
2019-05-22T11:31:20.101Z,68.17
2019-05-22T11:33:51.171Z,67.98
2019-05-22T11:36:24.099Z,68.22
2019-05-22T11:38:55.499Z,68.22
2019-05-22T11:41:27.006Z,68.70
2019-05-22T11:43:58.123Z,68.01
2019-05-22T11:46:29.542Z,68.41
2019-05-22T11:49:01.731Z,68.55
2019-05-22T11:51:32.798Z,68.75
2019-05-22T11:54:09.389Z,68.78
2019-05-22T11:56:37.908Z,68.80
2019-05-22T11:59:11.288Z,69.19
2019-05-22T12:01:42.722Z,68.99
2019-05-22T12:04:14.060Z,69.16
2019-05-22T12:06:45.254Z,69.12
2019-05-22T12:09:16.503Z,69.13
2019-05-22T12:11:48.254Z,69.19
2019-05-22T12:14:19.786Z,69.14
2019-05-22T12:16:53.154Z,67.89
2019-05-22T12:19:24.508Z,66.29
2019-05-22T12:21:55.843Z,64.98
2019-05-22T12:24:30.270Z,63.77
2019-05-22T12:26:59.752Z,63.38
2019-05-22T12:29:31.215Z,62.20
2019-05-22T12:32:02.328Z,62.22
2019-05-22T12:34:33.886Z,62.00
2019-05-22T12:37:05.510Z,61.40
2019-05-22T12:39:38.986Z,61.65
2019-05-22T12:42:10.759Z,61.28
2019-05-22T12:44:42.118Z,60.61
2019-05-22T12:47:14.118Z,60.47
2019-05-22T12:49:45.399Z,60.46
2019-05-22T12:52:16.799Z,60.99
2019-05-22T12:54:52.416Z,61.26
2019-05-22T12:57:20.919Z,61.43
2019-05-22T12:59:53.800Z,61.30
2019-05-22T13:02:25.361Z,61.26
2019-05-22T13:04:56.966Z,61.07
2019-05-22T13:07:28.403Z,60.60
2019-05-22T13:09:59.572Z,60.69
2019-05-22T13:12:31.443Z,60.17
2019-05-22T13:15:09.891Z,60.25
2019-05-22T13:17:36.243Z,59.46
2019-05-22T13:20:08.311Z,59.52
2019-05-22T13:22:43.758Z,59.44
2019-05-22T13:25:17.196Z,59.81
2019-05-22T13:27:48.924Z,59.23
2019-05-22T13:30:23.151Z,59.37
2019-05-22T13:32:57.047Z,59.22
2019-05-22T13:35:29.583Z,58.47
2019-05-22T13:38:02.766Z,58.19
2019-05-22T13:40:34.601Z,58.08
2019-05-22T13:43:06.032Z,57.63
2019-05-22T13:45:37.668Z,56.87
2019-05-22T13:48:09.137Z,56.28
2019-05-22T13:50:40.555Z,55.93
2019-05-22T13:53:13.292Z,56.03
2019-05-22T13:55:45.530Z,56.10
2019-05-22T13:58:17.161Z,55.87
2019-05-22T14:00:49.164Z,56.04
2019-05-22T14:03:20.818Z,56.67
2019-05-22T14:05:52.333Z,57.93
2019-05-22T14:08:23.831Z,59.38
2019-05-22T14:10:56.302Z,60.03
2019-05-22T14:13:27.835Z,59.74
2019-05-22T14:15:59.187Z,59.11
2019-05-22T14:18:31.306Z,58.77
2019-05-22T14:21:02.616Z,58.49
2019-05-22T14:23:34.057Z,57.50
2019-05-22T14:26:05.665Z,56.64
2019-05-22T14:28:37.848Z,56.44
2019-05-22T14:31:08.977Z,56.47
2019-05-22T14:33:40.756Z,55.46
2019-05-22T14:36:12.583Z,55.28
2019-05-22T14:38:43.938Z,54.63
2019-05-22T14:41:15.451Z,53.84
2019-05-22T14:43:46.570Z,53.92
2019-05-22T14:46:17.762Z,53.81
2019-05-22T14:48:49.096Z,54.32
2019-05-22T14:51:21.370Z,53.38
2019-05-22T14:53:54.546Z,52.70
2019-05-22T14:56:26.305Z,51.55
2019-05-22T14:58:57.404Z,51.05
2019-05-22T15:04:06.951Z,50.97
2019-05-22T15:06:38.566Z,51.23
2019-05-22T15:09:10.456Z,51.12
2019-05-22T15:11:41.711Z,50.89
2019-05-22T15:14:12.966Z,51.34
2019-05-22T15:16:44.681Z,51.23
2019-05-22T15:19:15.781Z,50.32
2019-05-22T15:21:46.834Z,50.82
2019-05-22T15:24:18.384Z,51.43
2019-05-22T15:26:49.665Z,51.25
2019-05-22T15:29:21.101Z,51.22
2019-05-22T15:31:52.207Z,51.36
2019-05-22T15:34:24.081Z,51.71
2019-05-22T15:36:55.356Z,52.10
2019-05-22T15:39:28.768Z,51.77
2019-05-22T15:42:00.425Z,51.79
2019-05-22T15:44:32.161Z,51.47
2019-05-22T15:47:03.512Z,51.01
2019-05-22T15:49:35.087Z,51.03
2019-05-22T15:52:09.287Z,50.10
2019-05-22T15:54:40.373Z,50.27
2019-05-22T15:57:12.803Z,49.11
2019-05-22T15:59:45.103Z,48.41
2019-05-22T16:02:20.979Z,49.50
2019-05-22T16:04:51.962Z,50.08
2019-05-22T16:07:23.280Z,50.03
2019-05-22T16:09:54.364Z,49.22
2019-05-22T16:12:26.065Z,49.76
2019-05-22T16:14:59.133Z,49.56
2019-05-22T16:17:46.856Z,49.76
2019-05-22T16:20:21.246Z,49.80
2019-05-22T16:22:54.759Z,50.63
2019-05-22T16:25:26.339Z,50.36
2019-05-22T16:27:57.795Z,50.10
2019-05-22T16:30:30.260Z,50.04
2019-05-22T16:33:03.709Z,50.54
2019-05-22T16:35:34.996Z,51.10
2019-05-22T16:38:06.097Z,51.22
2019-05-22T16:40:37.415Z,51.26
2019-05-22T16:43:09.534Z,51.47
2019-05-22T16:45:40.821Z,51.51
2019-05-22T16:48:27.621Z,50.64
2019-05-22T16:50:45.151Z,50.51
2019-05-22T16:53:17.836Z,49.71
2019-05-22T16:55:50.248Z,50.53
2019-05-22T16:58:21.651Z,50.26
2019-05-22T17:00:56.714Z,50.02
2019-05-22T17:03:29.613Z,50.12
2019-05-22T17:06:00.879Z,49.99
2019-05-22T17:08:32.269Z,50.72
2019-05-22T17:11:03.734Z,50.43
2019-05-22T17:13:34.909Z,50.86
2019-05-22T17:16:06.864Z,50.79
2019-05-22T17:18:47.439Z,50.88
2019-05-22T17:21:11.516Z,51.12
2019-05-22T17:23:43.434Z,51.30
2019-05-22T17:26:14.846Z,51.05
2019-05-22T17:28:46.011Z,51.27
2019-05-22T17:31:18.246Z,51.30
2019-05-22T17:33:49.263Z,51.57
2019-05-22T17:36:21.442Z,51.48
2019-05-22T17:38:52.814Z,50.47
2019-05-22T17:41:25.698Z,50.05
2019-05-22T17:43:57.479Z,49.90
2019-05-22T17:46:29.304Z,49.68
2019-05-22T17:49:00.873Z,49.39
2019-05-22T17:51:32.437Z,49.45
2019-05-22T17:54:04.583Z,49.33
2019-05-22T17:56:36.192Z,49.42
2019-05-22T17:59:07.240Z,48.98
2019-05-22T18:01:38.865Z,48.18
2019-05-22T18:04:10.217Z,47.67
2019-05-22T18:06:41.647Z,46.53
2019-05-22T18:09:13.039Z,45.58
2019-05-22T18:11:44.532Z,47.49
2019-05-22T18:14:16.131Z,49.24
2019-05-22T18:16:47.522Z,49.65
2019-05-22T18:19:19.077Z,49.98
2019-05-22T18:21:50.424Z,50.22
2019-05-22T18:24:22.447Z,50.34
2019-05-22T18:26:54.430Z,50.31
2019-05-22T18:29:26.490Z,50.70
2019-05-22T18:32:02.311Z,50.72
2019-05-22T18:34:33.409Z,51.37
2019-05-22T18:37:04.931Z,50.81
2019-05-22T18:39:36.528Z,50.85
2019-05-22T18:42:08.006Z,51.07
2019-05-22T18:44:39.138Z,50.98
2019-05-22T18:47:12.200Z,51.25
2019-05-22T18:49:43.256Z,51.87
2019-05-22T18:52:15.072Z,51.64
2019-05-22T18:54:46.253Z,51.83
2019-05-22T18:57:17.535Z,52.33
2019-05-22T18:59:48.780Z,52.38
2019-05-22T19:02:20.974Z,52.44
2019-05-22T19:04:52.591Z,53.10
2019-05-22T19:07:30.740Z,53.00
2019-05-22T19:10:02.800Z,54.22
2019-05-22T19:12:35.272Z,53.65
2019-05-22T19:15:06.577Z,53.74
2019-05-22T19:17:38.135Z,54.06
2019-05-22T19:20:10.641Z,54.27
2019-05-22T19:22:58.047Z,54.59
2019-05-22T19:25:15.814Z,54.84
2019-05-22T19:27:47.013Z,55.08
2019-05-22T19:30:20.743Z,55.36
2019-05-22T19:32:52.609Z,55.24
2019-05-22T19:35:23.730Z,55.96
2019-05-22T19:37:54.959Z,56.06
2019-05-22T19:40:26.227Z,56.47
2019-05-22T19:42:58.717Z,57.35
2019-05-22T19:45:31.035Z,57.69
2019-05-22T19:48:02.857Z,58.39
2019-05-22T19:50:34.636Z,59.04
2019-05-22T19:53:18.131Z,58.89
2019-05-22T19:55:38.620Z,59.73
2019-05-22T19:58:10.730Z,59.76
2019-05-22T20:00:43.159Z,59.76
2019-05-22T20:03:16.344Z,60.29
2019-05-22T20:05:47.533Z,60.32
2019-05-22T20:08:18.994Z,60.59
2019-05-22T20:10:51.621Z,61.29
2019-05-22T20:13:23.619Z,60.98
2019-05-22T20:15:55.372Z,61.34
2019-05-22T20:18:26.954Z,61.35
2019-05-22T20:20:58.589Z,61.59
2019-05-22T20:23:35.745Z,61.88
2019-05-22T20:26:03.375Z,61.92
2019-05-22T20:28:35.725Z,61.73
2019-05-22T20:31:07.550Z,62.14
2019-05-22T20:33:38.851Z,62.33
2019-05-22T20:36:10.774Z,62.43
2019-05-22T20:38:41.987Z,62.38
2019-05-22T20:41:13.869Z,62.83
2019-05-22T20:43:45.892Z,62.87
2019-05-22T20:46:18.677Z,62.98
2019-05-22T20:48:50.622Z,63.01
2019-05-22T20:51:21.796Z,63.41
2019-05-22T20:53:54.782Z,63.58
2019-05-22T20:56:27.912Z,64.00
2019-05-22T20:58:59.653Z,64.40
2019-05-22T21:01:33.249Z,63.98
2019-05-22T21:04:06.335Z,64.43
2019-05-22T21:06:41.518Z,64.74
2019-05-22T21:09:13.804Z,64.11
2019-05-22T21:11:45.161Z,64.13
2019-05-22T21:14:17.135Z,64.45
2019-05-22T21:16:48.261Z,65.12
2019-05-22T21:19:23.587Z,65.17
2019-05-22T21:21:56.550Z,65.57
2019-05-22T21:24:27.866Z,65.30
2019-05-22T21:26:59.045Z,65.90
2019-05-22T21:29:31.074Z,66.10
2019-05-22T21:32:02.994Z,66.12
2019-05-22T21:34:34.496Z,66.28
2019-05-22T21:37:06.528Z,66.84
2019-05-22T21:39:38.542Z,67.16
2019-05-22T21:42:10.301Z,67.32
2019-05-22T21:44:43.069Z,67.74
2019-05-22T21:47:14.854Z,68.18
2019-05-22T21:49:46.954Z,68.29
2019-05-22T21:52:18.618Z,68.31
2019-05-22T21:54:49.939Z,68.42
2019-05-22T21:57:20.989Z,67.23
2019-05-22T21:59:52.589Z,67.19
2019-05-22T22:02:32.827Z,67.91
2019-05-22T22:05:05.015Z,68.60
2019-05-22T22:07:37.066Z,68.49
2019-05-22T22:10:08.130Z,68.51
2019-05-22T22:12:39.833Z,68.71
2019-05-22T22:15:12.368Z,68.88
2019-05-22T22:17:44.446Z,69.45
2019-05-22T22:20:16.772Z,69.87
2019-05-22T22:22:48.986Z,69.93
2019-05-22T22:25:21.480Z,69.64
2019-05-22T22:27:52.881Z,69.71
2019-05-22T22:30:29.930Z,69.83
2019-05-22T22:33:04.281Z,69.28
2019-05-22T22:35:35.774Z,68.31
2019-05-22T22:38:09.178Z,69.07
2019-05-22T22:40:41.634Z,69.46
2019-05-22T22:43:14.136Z,69.60
2019-05-22T22:46:06.060Z,69.81
2019-05-22T22:48:39.588Z,68.43
2019-05-22T22:51:11.874Z,68.96
2019-05-22T22:53:43.743Z,69.03
2019-05-22T22:56:15.095Z,68.34
2019-05-22T22:58:46.237Z,68.36
2019-05-22T23:01:23.167Z,68.33
2019-05-22T23:03:56.618Z,67.72
2019-05-22T23:06:28.839Z,68.58
2019-05-22T23:09:00.792Z,68.25
2019-05-22T23:11:34.196Z,67.62
2019-05-22T23:14:06.068Z,67.77
2019-05-22T23:16:37.359Z,68.23
2019-05-22T23:19:44.368Z,68.23
2019-05-22T23:22:17.668Z,68.01
2019-05-22T23:24:51.967Z,68.10
2019-05-22T23:27:25.301Z,68.32
2019-05-22T23:29:57.664Z,69.80
2019-05-22T23:32:31.096Z,69.20
2019-05-22T23:35:02.621Z,69.18
2019-05-22T23:37:35.303Z,68.23
2019-05-22T23:40:08.250Z,68.68
2019-05-22T23:42:41.548Z,69.63
2019-05-22T23:45:15.243Z,69.19
2019-05-22T23:48:03.958Z,69.28
2019-05-22T23:50:38.114Z,69.54
2019-05-22T23:53:12.586Z,69.52
2019-05-22T23:55:44.162Z,69.76
2019-05-22T23:58:16.900Z,69.45
